createdAt,value
2018-05-26T00:00:54.743Z,14.50
2018-05-26T00:03:22.369Z,15.20
2018-05-26T00:05:49.919Z,15.57
2018-05-26T00:08:17.491Z,15.17
2018-05-26T00:10:45.060Z,14.00
2018-05-26T00:13:12.644Z,13.30
2018-05-26T00:15:40.203Z,13.10
2018-05-26T00:18:07.743Z,14.97
2018-05-26T00:20:35.308Z,14.27
2018-05-26T00:23:02.902Z,14.20
2018-05-26T00:25:30.493Z,13.00
2018-05-26T00:27:58.055Z,12.70
2018-05-26T00:30:25.696Z,12.40
2018-05-26T00:32:54.124Z,11.47
2018-05-26T00:35:21.695Z,11.13
2018-05-26T00:37:49.322Z,11.40
2018-05-26T00:40:16.879Z,10.53
2018-05-26T00:42:44.483Z,11.13
2018-05-26T00:45:12.168Z,11.13
2018-05-26T00:47:40.526Z,12.80
2018-05-26T00:50:08.079Z,11.70
2018-05-26T00:52:35.771Z,10.80
2018-05-26T00:55:04.104Z,11.57
2018-05-26T00:57:31.664Z,10.80
2018-05-26T00:59:59.239Z,10.80
2018-05-26T01:02:26.866Z,12.00
2018-05-26T01:04:54.414Z,11.57
2018-05-26T01:07:21.962Z,10.67
2018-05-26T01:09:49.536Z,10.90
2018-05-26T01:12:17.139Z,11.57
2018-05-26T01:14:46.360Z,12.37
2018-05-26T01:17:14.674Z,11.27
2018-05-26T01:19:42.438Z,12.83
2018-05-26T01:22:09.981Z,13.27
2018-05-26T01:24:37.543Z,11.00
2018-05-26T01:27:05.110Z,12.50
2018-05-26T01:29:32.806Z,12.97
2018-05-26T01:32:00.415Z,12.10
2018-05-26T01:34:28.071Z,12.03
2018-05-26T01:36:55.639Z,12.20
2018-05-26T01:39:23.207Z,10.50
2018-05-26T01:41:50.771Z,10.37
2018-05-26T01:44:18.317Z,11.53
2018-05-26T01:46:45.864Z,10.60
2018-05-26T01:49:13.398Z,11.20
2018-05-26T01:51:40.968Z,11.03
2018-05-26T01:54:09.319Z,11.57
2018-05-26T01:56:36.946Z,10.88
2018-05-26T01:59:04.618Z,10.33
2018-05-26T02:01:32.245Z,11.00
2018-05-26T02:03:59.824Z,10.63
2018-05-26T02:06:27.398Z,11.60
2018-05-26T02:08:54.986Z,10.80
2018-05-26T02:11:22.578Z,10.10
2018-05-26T02:13:50.915Z,11.43
2018-05-26T02:16:18.626Z,11.10
2018-05-26T02:18:46.282Z,11.27
2018-05-26T02:21:13.911Z,11.73
2018-05-26T02:23:41.627Z,14.53
2018-05-26T02:26:09.231Z,11.17
2018-05-26T02:28:36.786Z,14.63
2018-05-26T02:31:04.374Z,11.70
2018-05-26T02:33:32.763Z,13.50
2018-05-26T02:36:00.375Z,14.93
2018-05-26T02:38:27.966Z,14.20
2018-05-26T02:40:56.283Z,13.30
2018-05-26T02:43:23.835Z,14.70
2018-05-26T02:45:51.418Z,15.40
2018-05-26T02:48:18.971Z,13.67
2018-05-26T02:50:46.588Z,14.07
2018-05-26T02:53:14.989Z,15.37
2018-05-26T02:55:42.528Z,14.07
2018-05-26T02:58:10.094Z,14.80
2018-05-26T03:00:37.643Z,14.20
2018-05-26T03:03:05.178Z,16.10
2018-05-26T03:05:39.203Z,14.03
2018-05-26T03:08:13.223Z,14.70
2018-05-26T03:10:47.232Z,13.70
2018-05-26T03:13:20.552Z,13.50
2018-05-26T03:16:02.972Z,13.00
2018-05-26T03:18:30.543Z,12.10
2018-05-26T03:20:58.166Z,13.17
2018-05-26T03:23:25.768Z,12.00
2018-05-26T03:25:53.499Z,12.37
2018-05-26T03:28:21.084Z,12.87
2018-05-26T03:30:48.703Z,11.20
2018-05-26T03:33:16.319Z,11.37
2018-05-26T03:35:43.947Z,11.13
2018-05-26T03:38:11.567Z,11.23
2018-05-26T03:40:39.993Z,11.53
2018-05-26T03:43:07.538Z,10.80
2018-05-26T03:45:35.088Z,10.03
2018-05-26T03:48:02.698Z,11.00
2018-05-26T03:50:30.275Z,11.00
2018-05-26T03:52:58.769Z,11.27
2018-05-26T03:55:38.239Z,9.83
2018-05-26T03:58:17.800Z,9.50
2018-05-26T04:00:45.331Z,9.77
2018-05-26T04:03:12.887Z,9.53
2018-05-26T04:05:41.397Z,8.80
2018-05-26T04:08:08.959Z,10.73
2018-05-26T04:10:36.518Z,10.57
2018-05-26T04:13:04.045Z,9.47
2018-05-26T04:15:31.654Z,9.80
2018-05-26T04:18:00.043Z,12.03
2018-05-26T04:20:28.385Z,9.53
2018-05-26T04:22:55.999Z,11.10
2018-05-26T04:25:23.560Z,13.80
2018-05-26T04:27:51.103Z,10.97
2018-05-26T04:30:19.503Z,12.20
2018-05-26T04:32:47.050Z,11.70
2018-05-26T04:35:14.615Z,9.77
2018-05-26T04:37:42.168Z,10.67
2018-05-26T04:40:09.720Z,9.77
2018-05-26T04:42:37.259Z,9.90
2018-05-26T04:45:04.810Z,10.03
2018-05-26T04:47:32.395Z,9.77
2018-05-26T04:50:00.716Z,9.23
2018-05-26T04:52:28.312Z,9.80
2018-05-26T04:54:56.018Z,9.80
2018-05-26T04:57:23.555Z,10.30
2018-05-26T04:59:51.126Z,10.53
2018-05-26T05:02:18.704Z,10.23
2018-05-26T05:04:46.294Z,10.97
2018-05-26T05:07:14.807Z,11.70
2018-05-26T05:09:43.127Z,9.60
2018-05-26T05:12:10.682Z,9.77
2018-05-26T05:14:38.223Z,9.00
2018-05-26T05:17:05.848Z,9.83
2018-05-26T05:19:34.194Z,10.60
2018-05-26T05:22:01.741Z,8.50
2018-05-26T05:24:29.280Z,9.47
2018-05-26T05:26:56.842Z,9.00
2018-05-26T05:29:24.393Z,7.90
2018-05-26T05:31:51.936Z,8.13
2018-05-26T05:34:19.495Z,9.50
2018-05-26T05:36:47.055Z,9.10
2018-05-26T05:39:14.603Z,8.70
2018-05-26T05:41:42.903Z,9.43
2018-05-26T05:44:10.647Z,7.90
2018-05-26T05:46:38.950Z,8.30
2018-05-26T05:49:06.510Z,10.50
2018-05-26T05:51:34.055Z,10.80
2018-05-26T05:54:01.607Z,10.30
2018-05-26T05:56:29.191Z,9.27
2018-05-26T05:58:56.682Z,9.27
2018-05-26T06:01:24.306Z,11.33
2018-05-26T06:03:51.883Z,11.20
2018-05-26T06:06:19.564Z,10.97
2018-05-26T06:08:47.142Z,7.60
2018-05-26T06:11:14.787Z,7.77
2018-05-26T06:13:42.341Z,11.77
2018-05-26T06:16:09.912Z,11.50
2018-05-26T06:18:37.472Z,6.93
2018-05-26T06:21:05.219Z,7.00
2018-05-26T06:23:32.799Z,9.73
2018-05-26T06:26:01.256Z,8.20
2018-05-26T06:28:28.794Z,6.17
2018-05-26T06:30:56.371Z,6.60
2018-05-26T06:33:23.945Z,9.63
2018-05-26T06:38:14.003Z,7.33
2018-05-26T06:40:41.628Z,6.57
2018-05-26T06:43:10.031Z,5.67
2018-05-26T06:45:37.603Z,8.70
2018-05-26T06:48:05.148Z,9.40
2018-05-26T06:50:32.715Z,8.73
2018-05-26T06:53:00.277Z,8.83
2018-05-26T06:55:27.827Z,8.00
2018-05-26T06:57:55.371Z,5.53
2018-05-26T07:00:22.953Z,9.20
2018-05-26T07:02:50.511Z,5.40
2018-05-26T07:05:18.051Z,10.80
2018-05-26T07:07:45.666Z,6.03
2018-05-26T07:10:13.208Z,8.13
2018-05-26T07:12:40.764Z,8.00
2018-05-26T07:15:08.320Z,5.20
2018-05-26T07:17:35.896Z,7.33
2018-05-26T07:20:03.497Z,5.80
2018-05-26T07:22:31.899Z,6.40
2018-05-26T07:24:59.528Z,5.60
2018-05-26T07:27:27.856Z,6.53
2018-05-26T07:29:55.412Z,6.70
2018-05-26T07:32:22.920Z,5.30
2018-05-26T07:34:51.251Z,7.10
2018-05-26T07:37:18.846Z,5.20
2018-05-26T07:39:47.291Z,6.00
2018-05-26T07:42:14.840Z,6.50
2018-05-26T07:44:42.575Z,8.10
2018-05-26T07:47:10.269Z,9.30
2018-05-26T07:49:37.796Z,7.63
2018-05-26T07:52:05.367Z,6.10
2018-05-26T07:54:32.956Z,5.23
2018-05-26T07:57:00.633Z,5.70
2018-05-26T07:59:28.192Z,6.00
2018-05-26T08:01:55.765Z,5.40
2018-05-26T08:04:23.360Z,4.77
2018-05-26T08:06:51.100Z,5.83
2018-05-26T08:09:18.747Z,5.17
2018-05-26T08:11:46.344Z,5.13
2018-05-26T08:14:13.886Z,5.27
2018-05-26T08:16:41.456Z,4.50
2018-05-26T08:19:09.008Z,4.90
2018-05-26T08:21:36.579Z,10.23
2018-05-26T08:24:04.119Z,11.93
2018-05-26T08:26:31.824Z,6.80
2018-05-26T08:28:59.372Z,6.40
2018-05-26T08:31:26.949Z,4.80
2018-05-26T08:33:54.576Z,6.20
2018-05-26T08:36:22.134Z,11.87
2018-05-26T08:38:49.676Z,7.07
2018-05-26T08:41:17.256Z,10.00
2018-05-26T08:43:44.811Z,9.07
2018-05-26T08:46:12.367Z,12.47
2018-05-26T08:48:40.096Z,11.20
2018-05-26T08:51:08.497Z,9.40
2018-05-26T08:53:36.139Z,5.50
2018-05-26T08:56:04.575Z,6.33
2018-05-26T08:58:32.115Z,8.87
2018-05-26T09:00:59.844Z,7.30
2018-05-26T09:03:28.181Z,9.10
2018-05-26T09:05:55.718Z,6.67
2018-05-26T09:08:23.300Z,7.37
2018-05-26T09:10:50.896Z,6.13
2018-05-26T09:13:18.484Z,7.80
2018-05-26T09:15:46.055Z,7.43
2018-05-26T09:18:13.649Z,6.33
2018-05-26T09:20:41.179Z,5.50
2018-05-26T09:23:08.764Z,4.60
2018-05-26T09:25:36.478Z,7.60
2018-05-26T09:28:03.989Z,4.63
2018-05-26T09:30:31.536Z,12.13
2018-05-26T09:32:59.199Z,3.87
2018-05-26T09:35:26.771Z,7.90
2018-05-26T09:37:54.354Z,5.23
2018-05-26T09:40:21.885Z,2.80
2018-05-26T09:42:49.423Z,2.67
2018-05-26T09:45:16.996Z,2.47
2018-05-26T09:47:44.533Z,3.37
2018-05-26T09:50:12.144Z,3.30
2018-05-26T09:52:39.687Z,2.80
2018-05-26T09:55:08.011Z,2.77
2018-05-26T09:57:35.582Z,4.83
2018-05-26T10:00:03.115Z,3.27
2018-05-26T10:02:30.676Z,2.93
2018-05-26T10:04:58.252Z,3.43
2018-05-26T10:07:25.922Z,2.20
2018-05-26T10:09:53.486Z,2.73
2018-05-26T10:12:21.068Z,3.30
2018-05-26T10:14:48.660Z,2.47
2018-05-26T10:17:17.096Z,2.50
2018-05-26T10:19:44.676Z,3.43
2018-05-26T10:22:13.027Z,2.50
2018-05-26T10:24:40.568Z,2.17
2018-05-26T10:27:08.245Z,2.57
2018-05-26T10:29:35.805Z,2.53
2018-05-26T10:32:03.447Z,4.10
2018-05-26T10:34:31.023Z,3.23
2018-05-26T10:36:58.665Z,3.20
2018-05-26T10:39:26.292Z,3.23
2018-05-26T10:41:53.843Z,2.80
2018-05-26T10:44:22.159Z,2.47
2018-05-26T10:46:49.814Z,2.77
2018-05-26T10:49:17.382Z,2.90
2018-05-26T10:51:45.004Z,2.53
2018-05-26T10:54:12.588Z,3.10
2018-05-26T10:56:40.128Z,2.67
2018-05-26T10:59:07.688Z,2.90
2018-05-26T11:01:35.270Z,2.93
2018-05-26T11:04:02.844Z,3.27
2018-05-26T11:06:42.235Z,3.47
2018-05-26T11:09:09.783Z,2.70
2018-05-26T11:11:38.198Z,2.70
2018-05-26T11:14:05.763Z,2.83
2018-05-26T11:16:33.427Z,3.00
2018-05-26T11:19:01.151Z,2.30
2018-05-26T11:21:28.705Z,3.40
2018-05-26T11:23:57.154Z,2.97
2018-05-26T11:26:24.790Z,2.63
2018-05-26T11:28:52.569Z,2.70
2018-05-26T11:31:20.123Z,2.70
2018-05-26T11:33:47.662Z,2.57
2018-05-26T11:36:15.261Z,2.80
2018-05-26T11:38:42.833Z,3.07
2018-05-26T11:41:11.162Z,3.20
2018-05-26T11:43:38.983Z,3.03
2018-05-26T11:46:06.499Z,2.50
2018-05-26T11:48:34.069Z,2.60
2018-05-26T11:51:01.612Z,3.33
2018-05-26T11:53:29.280Z,2.73
2018-05-26T11:55:56.911Z,2.67
2018-05-26T11:58:24.572Z,3.77
2018-05-26T12:00:52.111Z,3.00
2018-05-26T12:03:19.688Z,3.10
2018-05-26T12:05:47.259Z,2.90
2018-05-26T12:08:14.834Z,2.43
2018-05-26T12:10:42.355Z,3.33
2018-05-26T12:13:09.964Z,3.43
2018-05-26T12:15:37.552Z,3.20
2018-05-26T12:18:05.864Z,3.60
2018-05-26T12:20:33.436Z,3.20
2018-05-26T12:23:00.977Z,2.80
2018-05-26T12:25:28.586Z,3.07
2018-05-26T12:27:56.113Z,2.80
2018-05-26T12:30:23.769Z,2.70
2018-05-26T12:32:51.387Z,3.37
2018-05-26T12:35:19.720Z,3.60
2018-05-26T12:37:47.251Z,3.03
2018-05-26T12:40:14.831Z,2.63
2018-05-26T12:42:43.331Z,3.10
2018-05-26T12:45:10.967Z,2.83
2018-05-26T12:47:38.509Z,3.37
2018-05-26T12:50:06.199Z,2.90
2018-05-26T12:52:33.945Z,2.90
2018-05-26T12:55:01.522Z,3.10
2018-05-26T12:57:29.085Z,3.70
2018-05-26T12:59:56.628Z,3.60
2018-05-26T13:02:24.221Z,3.10
2018-05-26T13:04:51.848Z,3.17
2018-05-26T13:07:19.452Z,3.60
2018-05-26T13:09:47.859Z,3.13
2018-05-26T13:12:15.536Z,3.03
2018-05-26T13:14:43.212Z,3.33
2018-05-26T13:17:10.802Z,3.30
2018-05-26T13:19:38.508Z,2.73
2018-05-26T13:22:06.075Z,3.17
2018-05-26T13:24:33.691Z,2.90
2018-05-26T13:27:01.247Z,3.43
2018-05-26T13:29:29.594Z,3.20
2018-05-26T13:31:57.132Z,2.77
2018-05-26T13:34:24.771Z,3.00
2018-05-26T13:36:52.368Z,2.67
2018-05-26T13:39:19.973Z,3.03
2018-05-26T13:41:48.428Z,2.73
2018-05-26T13:44:16.003Z,2.80
2018-05-26T13:46:43.638Z,3.67
2018-05-26T13:49:11.302Z,3.10
2018-05-26T13:51:39.618Z,3.23
2018-05-26T13:54:07.139Z,2.77
2018-05-26T13:56:34.883Z,3.40
2018-05-26T13:59:02.633Z,3.07
2018-05-26T14:01:30.306Z,2.90
2018-05-26T14:03:57.886Z,3.10
2018-05-26T14:06:25.457Z,3.20
2018-05-26T14:08:53.019Z,3.27
2018-05-26T14:11:20.592Z,3.17
2018-05-26T14:13:48.903Z,3.17
2018-05-26T14:16:16.476Z,2.80
2018-05-26T14:18:44.023Z,3.67
2018-05-26T14:21:11.591Z,3.73
2018-05-26T14:23:39.131Z,3.13
2018-05-26T14:26:06.690Z,3.20
2018-05-26T14:28:34.260Z,2.83
2018-05-26T14:31:01.856Z,3.37
2018-05-26T14:33:29.618Z,3.50
2018-05-26T14:35:58.667Z,3.50
2018-05-26T14:38:26.222Z,3.47
2018-05-26T14:40:53.760Z,2.60
2018-05-26T14:43:21.336Z,2.40
2018-05-26T14:45:48.913Z,3.53
2018-05-26T14:48:16.478Z,2.87
2018-05-26T14:50:44.056Z,3.13
2018-05-26T14:53:11.623Z,2.70
2018-05-26T14:55:39.175Z,3.10
2018-05-26T14:58:06.768Z,2.97
2018-05-26T15:00:35.354Z,3.23
2018-05-26T15:03:03.784Z,2.90
2018-05-26T15:05:31.353Z,2.83
2018-05-26T15:07:58.932Z,3.07
2018-05-26T15:10:26.593Z,3.33
2018-05-26T15:12:54.154Z,3.70
2018-05-26T15:15:21.699Z,3.30
2018-05-26T15:17:50.009Z,2.80
2018-05-26T15:20:18.331Z,3.30
2018-05-26T15:22:45.877Z,2.70
2018-05-26T15:25:14.207Z,2.90
2018-05-26T15:27:42.540Z,3.20
2018-05-26T15:30:10.088Z,3.10
2018-05-26T15:32:37.651Z,2.90
2018-05-26T15:35:05.199Z,2.93
2018-05-26T15:37:32.758Z,2.80
2018-05-26T15:40:00.304Z,2.90
2018-05-26T15:42:27.878Z,2.53
2018-05-26T15:44:55.412Z,3.17
2018-05-26T15:47:22.987Z,2.80
2018-05-26T15:49:50.590Z,3.13
2018-05-26T15:52:18.142Z,3.27
2018-05-26T15:54:45.711Z,4.00
2018-05-26T15:57:13.287Z,3.60
2018-05-26T15:59:41.615Z,3.30
2018-05-26T16:02:09.176Z,3.27
2018-05-26T16:04:36.853Z,3.10
2018-05-26T16:07:04.390Z,3.10
2018-05-26T16:09:32.004Z,2.93
2018-05-26T16:12:00.416Z,3.10
2018-05-26T16:14:27.974Z,3.00
2018-05-26T16:16:55.531Z,3.30
2018-05-26T16:19:23.148Z,3.10
2018-05-26T16:21:51.603Z,3.27
2018-05-26T16:24:19.178Z,3.37
2018-05-26T16:26:46.791Z,3.33
2018-05-26T16:29:14.387Z,3.30
2018-05-26T16:31:42.087Z,3.37
2018-05-26T16:34:10.392Z,3.17
2018-05-26T16:36:37.988Z,2.30
2018-05-26T16:39:07.048Z,3.93
2018-05-26T16:41:34.618Z,2.97
2018-05-26T16:44:02.155Z,3.40
2018-05-26T16:46:29.728Z,3.20
2018-05-26T16:48:57.273Z,2.97
2018-05-26T16:51:24.872Z,2.90
2018-05-26T16:53:52.539Z,3.30
2018-05-26T16:56:20.107Z,3.33
2018-05-26T16:58:47.697Z,3.70
2018-05-26T17:01:15.287Z,3.80
2018-05-26T17:03:42.819Z,3.10
2018-05-26T17:06:10.367Z,3.67
2018-05-26T17:08:37.946Z,3.47
2018-05-26T17:11:05.535Z,4.33
2018-05-26T17:13:33.100Z,2.90
2018-05-26T17:16:01.415Z,3.60
2018-05-26T17:18:29.764Z,2.80
2018-05-26T17:20:58.084Z,3.10
2018-05-26T17:23:25.650Z,3.00
2018-05-26T17:25:53.185Z,4.43
2018-05-26T17:28:21.629Z,3.13
2018-05-26T17:30:49.177Z,2.70
2018-05-26T17:33:16.742Z,3.23
2018-05-26T17:35:44.371Z,3.20
2018-05-26T17:38:11.927Z,3.50
2018-05-26T17:40:39.496Z,3.20
2018-05-26T17:43:07.091Z,2.87
2018-05-26T17:45:34.648Z,3.13
2018-05-26T17:48:03.179Z,3.10
2018-05-26T17:50:30.725Z,3.70
2018-05-26T17:52:58.321Z,2.93
2018-05-26T17:55:25.941Z,3.37
2018-05-26T17:57:54.308Z,3.60
2018-05-26T18:00:21.945Z,3.50
2018-05-26T18:02:49.640Z,3.03
2018-05-26T18:05:17.995Z,3.53
2018-05-26T18:07:45.537Z,4.63
2018-05-26T18:10:13.253Z,3.20
2018-05-26T18:12:40.807Z,3.60
2018-05-26T18:15:08.373Z,3.43
2018-05-26T18:17:36.154Z,3.47
2018-05-26T18:20:03.814Z,3.07
2018-05-26T18:22:31.503Z,3.53
2018-05-26T18:24:59.031Z,3.77
2018-05-26T18:27:26.627Z,3.03
2018-05-26T18:29:55.667Z,3.80
2018-05-26T18:32:23.397Z,4.27
2018-05-26T18:34:50.939Z,3.10
2018-05-26T18:37:18.678Z,4.27
2018-05-26T18:39:46.206Z,4.10
2018-05-26T18:42:13.788Z,3.10
2018-05-26T18:44:41.342Z,3.37
2018-05-26T18:47:09.012Z,3.57
2018-05-26T18:49:36.583Z,3.80
2018-05-26T18:52:04.136Z,4.23
2018-05-26T18:54:31.715Z,3.37
2018-05-26T18:56:59.275Z,3.80
2018-05-26T18:59:26.819Z,2.97
2018-05-26T19:01:54.391Z,3.40
2018-05-26T19:04:21.952Z,3.50
2018-05-26T19:06:49.506Z,3.67
2018-05-26T19:09:17.122Z,3.27
2018-05-26T19:11:44.836Z,3.23
2018-05-26T19:14:13.298Z,5.63
2018-05-26T19:16:40.893Z,3.80
2018-05-26T19:19:09.966Z,3.67
2018-05-26T19:21:37.555Z,3.97
2018-05-26T19:24:06.000Z,3.63
2018-05-26T19:26:33.664Z,3.60
2018-05-26T19:29:01.153Z,3.10
2018-05-26T19:31:29.476Z,3.70
2018-05-26T19:33:57.101Z,3.60
2018-05-26T19:36:25.445Z,4.03
2018-05-26T19:38:53.104Z,4.00
2018-05-26T19:41:20.654Z,4.00
2018-05-26T19:43:48.231Z,3.70
2018-05-26T19:46:16.574Z,3.80
2018-05-26T19:48:44.107Z,4.20
2018-05-26T19:51:11.772Z,4.13
2018-05-26T19:53:39.445Z,3.60
2018-05-26T19:56:07.011Z,4.03
2018-05-26T19:58:34.591Z,4.33
2018-05-26T20:01:02.167Z,5.03
2018-05-26T20:03:29.722Z,4.83
2018-05-26T20:05:58.061Z,4.32
2018-05-26T20:08:25.677Z,5.00
2018-05-26T20:10:54.143Z,4.33
2018-05-26T20:13:22.488Z,5.17
2018-05-26T20:15:50.388Z,3.80
2018-05-26T20:18:18.009Z,4.70
2018-05-26T20:20:45.619Z,3.93
2018-05-26T20:23:13.965Z,5.40
2018-05-26T20:25:41.549Z,3.70
2018-05-26T20:28:09.892Z,3.97
2018-05-26T20:30:37.449Z,5.00
2018-05-26T20:33:05.029Z,4.67
2018-05-26T20:35:32.647Z,5.13
2018-05-26T20:38:00.215Z,5.17
2018-05-26T20:40:27.849Z,4.87
2018-05-26T20:42:55.569Z,4.57
2018-05-26T20:45:23.216Z,5.43
2018-05-26T20:47:50.811Z,5.20
2018-05-26T20:50:19.149Z,5.07
2018-05-26T20:52:46.687Z,5.03
2018-05-26T20:55:14.385Z,5.13
2018-05-26T20:57:41.967Z,5.20
2018-05-26T21:00:10.415Z,5.70
2018-05-26T21:02:38.080Z,5.73
2018-05-26T21:05:05.690Z,5.40
2018-05-26T21:07:33.272Z,5.40
2018-05-26T21:10:00.851Z,5.57
2018-05-26T21:12:28.467Z,5.30
2018-05-26T21:14:56.047Z,5.60
2018-05-26T21:17:23.779Z,4.60
2018-05-26T21:19:51.408Z,6.30
2018-05-26T21:22:18.960Z,5.73
2018-05-26T21:24:46.537Z,5.03
2018-05-26T21:27:14.109Z,5.33
2018-05-26T21:29:42.571Z,5.80
2018-05-26T21:32:10.173Z,5.23
2018-05-26T21:34:37.735Z,5.70
2018-05-26T21:37:05.403Z,5.70
2018-05-26T21:39:32.944Z,5.70
2018-05-26T21:42:00.480Z,5.83
2018-05-26T21:44:28.817Z,6.37
2018-05-26T21:46:56.411Z,5.43
2018-05-26T21:49:24.002Z,4.90
2018-05-26T21:51:51.552Z,6.20
2018-05-26T21:54:19.111Z,5.43
2018-05-26T21:56:46.671Z,5.90
2018-05-26T21:59:14.255Z,5.57
2018-05-26T22:01:41.812Z,5.20
2018-05-26T22:04:09.384Z,5.37
2018-05-26T22:06:36.971Z,6.10
2018-05-26T22:09:06.059Z,5.63
2018-05-26T22:11:33.637Z,6.20
2018-05-26T22:14:02.060Z,5.80
2018-05-26T22:16:29.599Z,5.93
2018-05-26T22:18:57.314Z,5.67
2018-05-26T22:21:24.870Z,5.50
2018-05-26T22:23:52.445Z,5.50
2018-05-26T22:26:20.773Z,6.23
2018-05-26T22:28:48.331Z,6.00
2018-05-26T22:31:15.907Z,5.37
2018-05-26T22:33:43.487Z,6.30
2018-05-26T22:36:11.027Z,6.50
2018-05-26T22:38:38.690Z,6.07
2018-05-26T22:41:07.762Z,7.30
2018-05-26T22:43:35.342Z,6.80
2018-05-26T22:46:03.036Z,6.40
2018-05-26T22:48:31.345Z,6.43
2018-05-26T22:50:58.895Z,6.80
2018-05-26T22:53:26.468Z,6.10
2018-05-26T22:55:54.082Z,6.30
2018-05-26T22:58:21.800Z,6.10
2018-05-26T23:00:49.366Z,5.73
2018-05-26T23:03:16.932Z,6.37
2018-05-26T23:05:44.546Z,6.00
2018-05-26T23:08:12.989Z,5.87
2018-05-26T23:10:40.642Z,6.57
2018-05-26T23:13:08.187Z,5.97
2018-05-26T23:15:35.750Z,6.13
2018-05-26T23:18:03.324Z,7.30
2018-05-26T23:20:31.633Z,7.10
2018-05-26T23:22:59.979Z,7.90
2018-05-26T23:25:27.517Z,8.57
2018-05-26T23:27:55.080Z,8.63
2018-05-26T23:30:22.623Z,8.10
2018-05-26T23:32:50.382Z,6.80
2018-05-26T23:35:17.932Z,8.60
2018-05-26T23:37:45.569Z,7.80
2018-05-26T23:40:14.067Z,7.90
2018-05-26T23:42:41.640Z,8.60
2018-05-26T23:45:09.282Z,7.70
2018-05-26T23:47:36.884Z,8.30
2018-05-26T23:50:04.441Z,7.63
2018-05-26T23:52:31.993Z,8.43
2018-05-26T23:54:59.646Z,9.00
2018-05-26T23:57:27.197Z,8.90
2018-05-26T23:59:54.764Z,7.00
